Bangkok (Don Mueang), Thailand

10:48 PM +07 on 四月 23, 2017 (GMT +0700)
Bangkok International

天気 に付いての歴史 VTBD - 四月, 2017

Change the Weather History Date:

金曜日, 四月 21, 2017

  Actual Average Record
Temperature  
平均温度 90 °F -  
最高温度 99 °F 92 °F 102 °F (1997)
最低温度 82 °F 78 °F 77 °F (1999)
Cooling Degree Days 26    
Growing Degree Days 40 (Base 50)    
Moisture  
露点温度 70 °F    
Average Humidity 54    
Maximum Humidity 89    
Minimum Humidity 18    
降水確率  
降水確率 0.00 インチ 0.17 インチ - ()
海面圧  
海面圧 29.78 インチ    
 
風速 8 Mph ()    
最大風速 13 Mph    
Max Gust Speed -    
視程 6.1 マイル    
イベント      
Averages and records for this station are not official NWS values.
T = Trace of Precipitation, MM = Missing Value Source: Averaged Metar Reports

Daily Weather History Graph

Daily Weather History Graph

Search for Another Location

Airport or City:

Trip Planner

Search our weather history database for the weather conditions in past years. The results will help you decide how hot, cold, wet, or windy it might be!

Date:

天文

Apr. 21, 2017 入り
実時間 6:00 AM +07 6:31 PM +07
常用薄明 5:39 AM +07 6:53 PM +07
航海薄明 5:13 AM +07 7:19 PM +07
天文薄明 4:47 AM +07 7:45 PM +07
1:51 AM +07 (4/21) 1:46 PM +07 (4/21)
可視光の長さ 13h 14m
可照時間
12h 30m
二十六夜, 32% of the Moon is Illuminated
4月 21
二十六夜
4月 26
新しい
5月 3
上弦
5月 11
満月
5月 19
第 4 四半期

Hourly Weather History & Observations

時間 (+07) 温度 体感気温(暑さ) 露点温度 湿度 気圧 視程 Wind Dir 風速 突風の速度 Precip イベント 現在の気象状況
12:00 AM 86.0 °F 99.3 °F 78.8 °F 79% 29.80 インチ 6.2 マイル 9.2 Mph - N/A   所により曇
12:30 AM 86.0 °F 99.3 °F 78.8 °F 79% 29.80 インチ 6.2 マイル 10.4 Mph - N/A   所により曇
1:00 AM 86 °F - 79 °F 75% 29.80 インチ 6 マイル 10.4 Mph - -   やや曇
1:00 AM 86.0 °F 99.3 °F 78.8 °F 79% 29.80 インチ 6.2 マイル 10.4 Mph - N/A   所により曇
1:30 AM 86.0 °F 99.3 °F 78.8 °F 79% 29.77 インチ 6.2 マイル 南南西 8.1 Mph - N/A   所により曇
2:00 AM 86.0 °F 99.3 °F 78.8 °F 79% 29.77 インチ 6.2 マイル 6.9 Mph - N/A   所により曇
2:30 AM 86.0 °F 101.9 °F 80.6 °F 84% 29.77 インチ 6.2 マイル 8.1 Mph - N/A   所により曇
3:00 AM 86.0 °F 101.9 °F 80.6 °F 84% 29.77 インチ 6.2 マイル 南南西 5.8 Mph - N/A   所により曇
3:30 AM 84.2 °F 98.3 °F 80.6 °F 89% 29.77 インチ 5.6 マイル 南南西 5.8 Mph - N/A   所により曇
4:00 AM 84 °F - 80 °F 85% 29.78 インチ 6 マイル 南南西 8.1 Mph - -   もや
4:00 AM 84.2 °F 98.3 °F 80.6 °F 89% 29.77 インチ 5.6 マイル 南南西 8.1 Mph - N/A   所により曇
4:30 AM 84.2 °F 96.1 °F 78.8 °F 84% 29.77 インチ 5.6 マイル 南南西 8.1 Mph - N/A   所により曇
5:00 AM 84.2 °F 96.1 °F 78.8 °F 84% 29.77 インチ 5.6 マイル 南南西 6.9 Mph - N/A   所により曇
5:30 AM 84.2 °F 96.1 °F 78.8 °F 84% 29.80 インチ 5.6 マイル 西南西 8.1 Mph - N/A   所により曇
6:00 AM 82.4 °F 89.5 °F 75.2 °F 79% 29.80 インチ 5.0 マイル 西南西 4.6 Mph - N/A   所により曇
6:30 AM 84.2 °F 92.3 °F 75.2 °F 74% 29.80 インチ 5.6 マイル 西南西 6.9 Mph - N/A   所により曇
7:00 AM 84.2 °F 92.3 °F 75.2 °F 74% 29.80 インチ - 南西 5.8 Mph - N/A  
7:30 AM 86.0 °F 93.4 °F 73.4 °F 66% 29.83 インチ - 西南西 6.9 Mph - N/A  
8:00 AM 86.0 °F 91.8 °F 71.6 °F 62% 29.83 インチ - 西南西 11.5 Mph - N/A  
8:30 AM 87.8 °F 93.8 °F 71.6 °F 58% 29.86 インチ - 西南西 10.4 Mph - N/A  
9:00 AM 89.6 °F 94.7 °F 69.8 °F 52% 29.86 インチ - 西南西 12.7 Mph - N/A  
9:30 AM 89.6 °F 93.4 °F 68.0 °F 49% 29.86 インチ - 西南西 12.7 Mph - N/A  
10:00 AM 92 °F - 69 °F 37% 29.87 インチ 6 マイル 西南西 12.7 Mph - -  
10:00 AM 91.4 °F 95.4 °F 68.0 °F 46% 29.86 インチ - 西南西 12.7 Mph - N/A  
10:30 AM 91.4 °F 95.4 °F 68.0 °F 46% 29.86 インチ - 西南西 9.2 Mph - N/A  
11:00 AM 95.0 °F 101.3 °F 69.8 °F 44% 29.86 インチ - 西南西 10.4 Mph - N/A  
11:30 AM 95.0 °F 98.5 °F 66.2 °F 39% 29.83 インチ - 西南西 10.4 Mph - N/A  
12:00 PM 96.8 °F 99.0 °F 64.4 °F 34% 29.80 インチ - 西 10.4 Mph - N/A  
12:30 PM 96.8 °F 99.0 °F 64.4 °F 34% 29.80 インチ - 南西 10.4 Mph - N/A  
1:00 PM 98 °F - 60 °F 19% 29.79 インチ 6 マイル 西 8.1 Mph - -  
1:00 PM 98.6 °F 99.4 °F 60.8 °F 29% 29.77 インチ - 西 8.1 Mph - N/A  
1:30 PM 98.6 °F 102.8 °F 66.2 °F 35% 29.77 インチ - 西北西 11.5 Mph - N/A  
2:00 PM 98.6 °F 104.1 °F 68.0 °F 37% 29.74 インチ - 西 6.9 Mph - N/A  
2:30 PM 98.6 °F 102.8 °F 66.2 °F 35% 29.74 インチ - 西 9.2 Mph - N/A  
3:00 PM 100.4 °F 103.6 °F 64.4 °F 31% 29.71 インチ - 西 8.1 Mph - N/A  
3:30 PM 100.4 °F 103.6 °F 64.4 °F 31% 29.71 インチ - 西南西 9.2 Mph - N/A  
4:00 PM 99 °F - 59 °F 18% 29.73 インチ 11 マイル 西北西 8.1 Mph - -  
4:00 PM 98.6 °F 98.5 °F 59.0 °F 27% 29.71 インチ - 西北西 8.1 Mph - N/A  
4:30 PM 98.6 °F 97.6 °F 57.2 °F 25% 29.71 インチ - 西 9.2 Mph - N/A  
5:00 PM 98.6 °F 97.2 °F 55.4 °F 24% 29.68 インチ - 西 8.1 Mph - N/A  
5:30 PM 98.6 °F 96.4 °F 53.6 °F 22% 29.68 インチ - 西南西 4.6 Mph - N/A  
6:00 PM 96.8 °F 94.4 °F 53.6 °F 23% 29.68 インチ - ほぼ無風 ほぼ無風 - N/A  
6:30 PM 95.0 °F 93.7 °F 57.2 °F 28% 29.68 インチ - ほぼ無風 ほぼ無風 - N/A  
7:00 PM 93 °F - 61 °F 25% 29.70 インチ 6 マイル 4.6 Mph - -   煙霧
7:00 PM 93.2 °F 93.3 °F 60.8 °F 34% 29.71 インチ 5.6 マイル 4.6 Mph - N/A   情報なし
7:30 PM 91.4 °F 98.4 °F 71.6 °F 52% 29.71 インチ 5.6 マイル 南南東 8.1 Mph - N/A   情報なし
8:00 PM 91.4 °F 98.4 °F 71.6 °F 52% 29.74 インチ - 6.9 Mph - N/A  
8:30 PM 89.6 °F 93.4 °F 68.0 °F 49% 29.74 インチ - 南南西 8.1 Mph - N/A  
9:00 PM 87.8 °F 93.8 °F 71.6 °F 58% 29.77 インチ - 南南西 5.8 Mph - N/A  
9:30 PM 87.8 °F 93.8 °F 71.6 °F 58% 29.77 インチ - 南南西 6.9 Mph - N/A  
10:00 PM 87 °F - 73 °F 54% 29.78 インチ 6 マイル 南南西 8.1 Mph - -   やや曇
10:00 PM 86.0 °F 93.4 °F 73.4 °F 66% 29.77 インチ - 南南西 8.1 Mph - N/A  
10:30 PM 87.8 °F 97.6 °F 75.2 °F 66% 29.80 インチ - 南南西 10.4 Mph - N/A  
11:00 PM 86.0 °F 95.1 °F 75.2 °F 70% 29.80 インチ - 南南西 6.9 Mph - N/A  
11:30 PM 86.0 °F 95.1 °F 75.2 °F 70% 29.80 インチ - 南南西 8.1 Mph - N/A